Time;durP1;ratioP1;P1;durP2;ratioP2;P2;SDS_P1;SDS_P2;PMS_P1;PMS_P2;Temp;Humidity;BMP_temperature;BMP_pressure;BME280_temperature;BME280_humidity;BME280_pressure;Samples;Min_cycle;Max_cycle;Signal;HPM_P1;HPM_P2
2021/11/05 00:01:45;;;;;;;;;15.75;15.25;;;;;15.77;78.45;101444.66;146609;572;46011;-73
2021/11/05 00:04:19;;;;;;;;;14.75;13.75;;;;;15.77;78.55;101442.91;146608;606;45916;-73
2021/11/05 00:06:53;;;;;;;;;17.00;13.50;;;;;15.78;78.17;101434.22;146610;647;46010;-73
2021/11/05 00:09:27;;;;;;;;;15.25;15.25;;;;;15.78;78.47;101435.97;146606;577;46013;-73
2021/11/05 00:12:00;;;;;;;;;17.75;16.50;;;;;15.78;78.39;101441.19;146610;587;45030;-73
2021/11/05 00:14:34;;;;;;;;;18.50;14.50;;;;;15.80;78.29;101443.03;146607;597;46012;-77
2021/11/05 00:17:09;;;;;;;;;18.00;15.00;;;;;15.82;78.36;101436.13;146607;609;46020;-75
2021/11/05 00:19:43;;;;;;;;;16.75;13.25;;;;;15.84;78.54;101438.84;146603;587;46016;-78
2021/11/05 00:22:16;;;;;;;;;17.50;17.50;;;;;15.87;78.25;101437.22;146607;628;46020;-75
2021/11/05 00:24:52;;;;;;;;;15.50;13.25;;;;;15.88;78.75;101441.62;146608;600;46020;-75
2021/11/05 00:27:26;;;;;;;;;15.75;14.75;;;;;15.89;78.74;101437.31;146609;571;45020;-75
2021/11/05 00:30:00;;;;;;;;;14.00;12.75;;;;;15.91;79.25;101441.75;146606;581;45020;-73
2021/11/05 00:32:34;;;;;;;;;14.50;13.50;;;;;15.91;80.09;101436.50;146606;696;46013;-74
2021/11/05 00:35:17;;;;;;;;;20.00;17.00;;;;;15.94;79.52;101438.38;146608;569;46012;-74
2021/11/05 00:37:51;;;;;;;;;18.50;15.00;;;;;15.97;79.85;101442.84;146608;610;45020;-74
2021/11/05 00:40:28;;;;;;;;;20.75;19.25;;;;;16.01;80.37;101445.66;146604;646;46016;-74
2021/11/05 00:43:03;;;;;;;;;20.00;18.00;;;;;16.07;80.08;101440.63;146608;724;46012;-74
2021/11/05 00:45:37;;;;;;;;;19.50;17.75;;;;;16.13;80.20;101448.75;146606;586;45020;-73
2021/11/05 00:48:11;;;;;;;;;22.00;20.00;;;;;16.14;80.50;101447.94;146607;570;45021;-74
2021/11/05 00:50:45;;;;;;;;;19.50;18.50;;;;;16.17;79.23;101453.28;146608;628;45020;-73
2021/11/05 00:53:19;;;;;;;;;20.75;18.50;;;;;16.23;79.69;101444.78;146610;624;45020;-75
2021/11/05 00:55:52;;;;;;;;;19.00;17.75;;;;;16.29;79.64;101449.34;146607;579;45025;-74
2021/11/05 00:58:36;;;;;;;;;22.25;21.00;;;;;16.35;79.56;101445.28;146610;647;46010;-72
2021/11/05 01:01:10;;;;;;;;;20.75;16.00;;;;;16.43;79.11;101452.53;146608;645;45018;-73
2021/11/05 01:03:44;;;;;;;;;21.00;18.75;;;;;16.46;78.86;101457.88;146608;741;46020;-77
2021/11/05 01:06:18;;;;;;;;;18.25;16.25;;;;;16.50;78.42;101450.19;146608;593;46016;-77
2021/11/05 01:08:52;;;;;;;;;16.75;14.00;;;;;16.56;78.48;101462.62;146612;576;45022;-78
2021/11/05 01:11:26;;;;;;;;;14.75;13.00;;;;;16.60;77.84;101457.59;146606;647;46020;-77
2021/11/05 01:14:00;;;;;;;;;19.50;17.75;;;;;16.65;77.52;101462.09;146613;579;45020;-80
2021/11/05 01:16:35;;;;;;;;;14.25;12.25;;;;;16.69;78.49;101456.12;146607;638;46013;-79
2021/11/05 01:19:09;;;;;;;;;18.75;15.00;;;;;16.71;78.80;101452.75;146609;633;45020;-79
2021/11/05 01:21:43;;;;;;;;;16.00;14.00;;;;;16.73;77.60;101456.31;146606;581;46016;-77
2021/11/05 01:24:17;;;;;;;;;16.25;15.25;;;;;16.77;77.54;101462.59;146608;639;46021;-79
2021/11/05 01:26:52;;;;;;;;;15.25;15.00;;;;;16.79;77.73;101463.53;146608;563;46012;-79
2021/11/05 01:29:26;;;;;;;;;20.50;18.50;;;;;16.81;78.26;101461.88;146608;569;46020;-80
2021/11/05 01:32:00;;;;;;;;;22.25;16.50;;;;;16.83;78.15;101462.84;146606;641;45017;-72
2021/11/05 01:34:35;;;;;;;;;17.00;17.00;;;;;16.84;77.78;101462.88;146607;601;46020;-72
2021/11/05 01:37:09;;;;;;;;;16.00;15.25;;;;;16.87;78.50;101456.87;146606;569;46016;-75
2021/11/05 01:39:43;;;;;;;;;25.50;18.75;;;;;16.88;78.20;101458.62;146610;582;45021;-75
2021/11/05 01:42:17;;;;;;;;;20.50;16.25;;;;;16.90;78.92;101456.09;146606;571;46012;-76
2021/11/05 01:44:51;;;;;;;;;14.50;14.25;;;;;16.90;78.41;101461.34;146610;580;45021;-74
2021/11/05 01:47:26;;;;;;;;;18.50;16.50;;;;;16.91;79.28;101461.38;146608;584;46012;-76
2021/11/05 01:50:00;;;;;;;;;16.25;14.00;;;;;16.93;78.94;101464.94;146609;575;46020;-73
2021/11/05 01:52:34;;;;;;;;;19.00;17.75;;;;;16.94;78.49;101453.63;146607;586;46012;-73
2021/11/05 01:55:09;;;;;;;;;18.25;17.25;;;;;16.97;78.44;101455.47;146608;590;45020;-74
2021/11/05 01:57:46;;;;;;;;;23.00;18.50;;;;;16.97;79.39;101451.13;146606;672;46018;-73
2021/11/05 02:00:24;;;;;;;;;20.00;16.00;;;;;16.99;78.59;101445.97;146611;630;45021;-78
2021/11/05 02:02:58;;;;;;;;;17.00;15.25;;;;;17.01;78.08;101447.81;146608;617;46012;-79
2021/11/05 02:05:32;;;;;;;;;19.75;17.25;;;;;17.03;78.26;101440.87;146611;573;45020;-76
2021/11/05 02:08:06;;;;;;;;;16.25;15.00;;;;;17.06;78.28;101432.22;146606;675;46017;-79
2021/11/05 02:10:41;;;;;;;;;18.50;16.50;;;;;17.05;77.98;101431.34;146610;572;45020;-80
2021/11/05 02:13:17;;;;;;;;;16.50;13.75;;;;;17.07;78.23;101432.31;146606;660;46012;-78
2021/11/05 02:15:52;;;;;;;;;18.25;17.50;;;;;17.08;77.94;101434.06;146609;601;46020;-79
2021/11/05 02:18:27;;;;;;;;;21.25;17.50;;;;;17.10;78.40;101434.13;146608;619;45028;-81
2021/11/05 02:21:05;;;;;;;;;19.50;17.25;;;;;17.13;78.23;101436.84;146607;608;45020;-75
2021/11/05 02:23:39;;;;;;;;;16.25;15.75;;;;;17.14;78.39;101435.16;146607;580;46918;-76
2021/11/05 02:26:13;;;;;;;;;15.75;11.75;;;;;17.13;78.28;101436.84;146610;594;45020;-74
2021/11/05 02:28:46;;;;;;;;;23.00;18.75;;;;;17.15;78.53;101439.53;146603;569;46017;-74
2021/11/05 02:31:21;;;;;;;;;18.00;15.50;;;;;17.14;78.50;101440.37;146608;691;46020;-73
2021/11/05 02:33:55;;;;;;;;;20.75;18.50;;;;;17.14;77.88;101440.37;146609;588;45020;-75
2021/11/05 02:36:29;;;;;;;;;17.75;16.25;;;;;17.13;77.13;101451.69;146609;578;45020;-74
2021/11/05 02:39:07;;;;;;;;;20.50;16.50;;;;;17.14;77.27;101456.09;146609;585;45021;-74
2021/11/05 02:41:44;;;;;;;;;18.50;17.00;;;;;17.17;77.43;101462.34;146611;587;46012;-74
2021/11/05 02:44:19;;;;;;;;;19.00;14.00;;;;;17.19;78.40;101457.16;146606;585;47918;-74
2021/11/05 02:46:54;;;;;;;;;16.75;14.50;;;;;17.16;78.44;101447.44;146608;577;46020;-74
2021/11/05 02:49:28;;;;;;;;;16.50;16.00;;;;;17.15;78.46;101447.41;146606;640;45016;-74
2021/11/05 02:52:02;;;;;;;;;20.00;16.50;;;;;17.14;78.96;101449.12;146608;644;46012;-75
2021/11/05 02:54:36;;;;;;;;;17.25;15.75;;;;;17.11;77.81;101446.41;146608;693;46012;-75
2021/11/05 02:57:11;;;;;;;;;18.25;14.75;;;;;17.10;78.60;101449.84;146611;578;45020;-75
2021/11/05 02:59:45;;;;;;;;;21.00;16.50;;;;;17.08;78.81;101444.56;146607;576;45018;-76
2021/11/05 03:02:19;;;;;;;;;17.50;14.75;;;;;17.06;77.98;101448.84;146608;593;46012;-75
2021/11/05 03:04:54;;;;;;;;;12.75;12.75;;;;;17.08;78.57;101462.00;146606;570;45035;-75
2021/11/05 03:07:28;;;;;;;;;20.25;16.75;;;;;17.09;79.07;101463.78;146611;569;45021;-77
2021/11/05 03:10:02;;;;;;;;;17.25;16.25;;;;;17.11;78.18;101456.87;146607;563;45041;-80
2021/11/05 03:12:36;;;;;;;;;18.50;15.75;;;;;17.12;78.50;101458.66;146608;577;45020;-80
2021/11/05 03:15:10;;;;;;;;;24.25;20.25;;;;;17.15;78.27;101463.13;146609;604;45918;-80
2021/11/05 03:17:45;;;;;;;;;20.75;16.50;;;;;17.16;78.72;101449.16;146608;581;46020;-79
2021/11/05 03:20:20;;;;;;;;;18.50;16.75;;;;;17.17;78.72;101457.09;146606;580;46012;-82
2021/11/05 03:22:54;;;;;;;;;19.50;18.75;;;;;17.18;80.02;101451.00;146609;578;46012;-74
2021/11/05 03:25:28;;;;;;;;;23.75;21.75;;;;;17.18;79.00;101450.13;146606;569;46012;-77
2021/11/05 03:28:02;;;;;;;;;16.75;14.75;;;;;17.15;78.85;101450.91;146609;572;45021;-79
2021/11/05 03:30:36;;;;;;;;;23.50;20.00;;;;;17.17;78.31;101462.34;146606;605;46021;-77
2021/11/05 03:33:10;;;;;;;;;20.50;19.25;;;;;17.16;78.29;101462.28;146608;617;46020;-77
2021/11/05 03:35:44;;;;;;;;;19.25;18.50;;;;;17.19;77.85;101467.63;146605;582;46017;-77
2021/11/05 03:38:18;;;;;;;;;19.75;18.00;;;;;17.21;77.87;101463.34;146611;592;45020;-76
2021/11/05 03:40:52;;;;;;;;;20.75;19.25;;;;;17.23;79.04;101461.69;146603;563;47917;-78
2021/11/05 03:43:26;;;;;;;;;21.25;20.50;;;;;17.23;78.80;101465.19;146612;667;45021;-71
2021/11/05 03:46:01;;;;;;;;;20.75;17.75;;;;;17.21;78.52;101460.72;146606;641;46016;-75
2021/11/05 03:48:38;;;;;;;;;27.25;22.25;;;;;17.23;77.96;101464.31;146611;570;46010;-73
2021/11/05 03:51:13;;;;;;;;;21.25;18.75;;;;;17.23;78.25;101470.44;146610;564;45034;-72
2021/11/05 03:53:46;;;;;;;;;21.25;18.25;;;;;17.26;78.00;101464.41;146612;565;45029;-71
2021/11/05 03:56:21;;;;;;;;;42.25;34.75;;;;;17.28;77.47;101462.72;146607;669;46012;-70
2021/11/05 03:58:55;;;;;;;;;56.25;45.50;;;;;17.30;77.67;101461.94;146609;579;46020;-73
2021/11/05 04:01:29;;;;;;;;;37.00;32.00;;;;;17.33;77.67;101462.91;146609;587;45016;-73
2021/11/05 04:04:03;;;;;;;;;29.25;26.00;;;;;17.35;77.74;101455.97;146608;578;45021;-77
2021/11/05 04:06:37;;;;;;;;;32.00;26.25;;;;;17.38;77.65;101461.31;146604;592;46016;-75
2021/11/05 04:09:10;;;;;;;;;26.50;24.25;;;;;17.38;77.96;101458.69;146609;693;45020;-72
2021/11/05 04:11:44;;;;;;;;;23.75;21.00;;;;;17.41;77.69;101458.78;146605;613;46016;-75
2021/11/05 04:14:19;;;;;;;;;18.75;17.25;;;;;17.41;78.70;101450.94;146609;689;45020;-73
2021/11/05 04:16:52;;;;;;;;;21.50;21.00;;;;;17.40;79.42;101457.91;146609;571;45016;-75
2021/11/05 04:19:26;;;;;;;;;24.75;23.00;;;;;17.39;78.48;101457.88;146609;606;45021;-74
2021/11/05 04:22:00;;;;;;;;;23.50;22.00;;;;;17.39;78.46;101452.62;146607;653;47021;-76
2021/11/05 04:24:34;;;;;;;;;25.00;21.50;;;;;17.39;78.28;101447.37;146609;569;46020;-75
2021/11/05 04:27:08;;;;;;;;;25.00;22.25;;;;;17.40;78.17;101449.16;146610;674;45016;-74
2021/11/05 04:29:43;;;;;;;;;22.25;21.25;;;;;17.41;78.35;101451.81;146607;609;46020;-74
2021/11/05 04:32:17;;;;;;;;;22.00;20.25;;;;;17.42;78.36;101447.50;146607;578;46012;-74
2021/11/05 04:34:51;;;;;;;;;21.75;19.75;;;;;17.42;77.67;101452.75;146611;613;45012;-73
2021/11/05 04:37:24;;;;;;;;;25.00;19.50;;;;;17.44;79.10;101457.16;146608;602;45016;-74
2021/11/05 04:39:58;;;;;;;;;23.75;18.50;;;;;17.44;79.71;101459.78;146608;575;46010;-72
2021/11/05 04:42:32;;;;;;;;;27.75;24.25;;;;;17.42;79.94;101458.88;146606;627;45020;-70
2021/11/05 04:45:07;;;;;;;;;26.25;25.50;;;;;17.42;78.68;101469.34;146611;592;45020;-71
2021/11/05 04:47:41;;;;;;;;;23.00;21.50;;;;;17.43;78.50;101476.38;146606;589;45020;-71
2021/11/05 04:50:16;;;;;;;;;26.00;23.75;;;;;17.43;78.58;101471.13;146609;578;46012;-80
2021/11/05 04:52:50;;;;;;;;;22.00;20.75;;;;;17.44;78.71;101469.38;146605;632;46016;-78
2021/11/05 04:55:26;;;;;;;;;23.00;18.75;;;;;17.45;78.60;101474.69;146608;631;46020;-80
2021/11/05 04:58:00;;;;;;;;;27.25;23.00;;;;;17.46;78.33;101479.09;146606;566;46021;-81
2021/11/05 05:00:34;;;;;;;;;23.75;19.75;;;;;17.47;78.59;101475.62;146608;593;46010;-75
2021/11/05 05:03:09;;;;;;;;;21.75;19.50;;;;;17.50;78.93;101474.84;146604;618;46016;-76
2021/11/05 05:05:43;;;;;;;;;25.50;24.25;;;;;17.52;78.32;101476.69;146611;686;45021;-77
2021/11/05 05:08:16;;;;;;;;;24.75;21.75;;;;;17.52;78.25;101474.06;146609;596;45027;-77
2021/11/05 05:10:51;;;;;;;;;28.25;23.50;;;;;17.54;78.37;101479.38;146608;584;45021;-76
2021/11/05 05:13:25;;;;;;;;;28.25;26.00;;;;;17.55;77.94;101484.66;146607;581;46012;-74
2021/11/05 05:15:59;;;;;;;;;24.00;23.25;;;;;17.59;78.19;101490.91;146608;590;46020;-79
2021/11/05 05:18:33;;;;;;;;;22.75;18.00;;;;;17.59;77.89;101485.66;146605;571;46016;-81
2021/11/05 05:21:07;;;;;;;;;23.00;20.50;;;;;17.63;78.08;101494.53;146605;578;46020;-76
2021/11/05 05:23:41;;;;;;;;;23.25;21.00;;;;;17.64;78.24;101491.97;146607;616;46014;-76
2021/11/05 05:26:15;;;;;;;;;23.25;18.75;;;;;17.65;78.23;101485.88;146609;573;45021;-76
2021/11/05 05:28:49;;;;;;;;;23.25;21.00;;;;;17.65;77.93;101488.50;146608;564;46012;-72
2021/11/05 05:31:23;;;;;;;;;26.50;24.25;;;;;17.65;77.96;101485.00;146607;565;46020;-73
2021/11/05 05:33:57;;;;;;;;;28.25;25.50;;;;;17.66;78.31;101479.81;146607;641;45016;-71
2021/11/05 05:36:31;;;;;;;;;25.75;21.75;;;;;17.68;77.66;101492.97;146609;569;46020;-73
2021/11/05 05:39:05;;;;;;;;;25.75;22.75;;;;;17.70;77.57;101493.91;146607;584;46012;-71
2021/11/05 05:41:38;;;;;;;;;29.75;23.50;;;;;17.70;77.54;101493.91;146612;564;45025;-72
2021/11/05 05:44:12;;;;;;;;;25.25;23.50;;;;;17.71;77.74;101490.44;146605;615;46016;-72
2021/11/05 05:46:46;;;;;;;;;24.25;21.75;;;;;17.74;77.65;101494.06;146609;601;46020;-72
2021/11/05 05:49:20;;;;;;;;;25.75;24.00;;;;;17.75;77.70;101503.69;146606;579;45020;-73
2021/11/05 05:51:54;;;;;;;;;24.25;21.25;;;;;17.76;77.67;101499.38;146610;588;46020;-72
2021/11/05 05:54:28;;;;;;;;;25.75;21.25;;;;;17.75;77.52;101501.06;146607;603;45016;-72
2021/11/05 05:57:02;;;;;;;;;28.75;25.00;;;;;17.77;78.28;101506.44;146608;564;46021;-72
2021/11/05 05:59:37;;;;;;;;;28.75;22.00;;;;;17.74;77.88;101509.81;146606;581;45917;-72
2021/11/05 06:02:11;;;;;;;;;27.50;26.25;;;;;17.78;77.47;101516.97;146612;608;45020;-73
2021/11/05 06:04:45;;;;;;;;;28.50;24.50;;;;;17.82;78.60;101524.94;146611;632;45014;-72
2021/11/05 06:07:19;;;;;;;;;24.25;21.25;;;;;17.84;78.08;101521.53;146610;587;45030;-70
2021/11/05 06:09:53;;;;;;;;;30.00;27.25;;;;;17.89;77.91;101524.31;146608;572;45016;-71
2021/11/05 06:12:28;;;;;;;;;25.75;24.75;;;;;17.93;77.98;101527.09;146611;650;45021;-73
2021/11/05 06:15:03;;;;;;;;;27.25;25.50;;;;;17.99;77.80;101543.03;146610;577;45020;-73
2021/11/05 06:17:37;;;;;;;;;26.75;25.25;;;;;18.03;77.86;101541.41;146610;619;45020;-74
2021/11/05 06:20:11;;;;;;;;;38.00;31.50;;;;;18.08;77.73;101539.84;146609;624;45017;-77
2021/11/05 06:22:47;;;;;;;;;33.50;29.50;;;;;18.11;77.06;101542.56;146611;647;45020;-76
2021/11/05 06:25:21;;;;;;;;;34.25;30.00;;;;;18.16;77.43;101546.25;146609;580;45021;-75
2021/11/05 06:27:55;;;;;;;;;105.50;87.25;;;;;18.20;76.98;101539.38;146609;736;46010;-75
2021/11/05 06:30:29;;;;;;;;;91.33;77.67;;;;;18.22;77.40;101543.84;146610;622;45023;-76
2021/11/05 06:33:03;;;;;;;;;34.00;30.50;;;;;18.27;77.05;101549.22;146608;617;46012;-73
2021/11/05 06:35:37;;;;;;;;;35.25;30.00;;;;;18.30;77.50;101554.56;146608;608;45016;-71
2021/11/05 06:38:11;;;;;;;;;34.00;27.25;;;;;18.32;77.55;101552.91;146611;586;46020;-72
2021/11/05 06:40:45;;;;;;;;;34.00;31.50;;;;;18.35;77.23;101553.00;146606;607;46013;-72
2021/11/05 06:43:21;;;;;;;;;31.50;28.00;;;;;18.37;77.35;101559.19;146613;597;45012;-73
2021/11/05 06:45:56;;;;;;;;;24.00;23.00;;;;;18.39;77.18;101560.13;146607;718;46012;-72
2021/11/05 06:48:29;;;;;;;;;31.00;27.00;;;;;18.42;77.08;101562.84;146611;576;45021;-73
2021/11/05 06:51:04;;;;;;;;;31.50;24.50;;;;;17.60;76.86;101407.88;146609;578;46012;-72
2021/11/05 06:53:38;;;;;;;;;42.75;34.25;;;;;18.48;76.96;101561.28;146610;588;45020;-73
2021/11/05 06:56:12;;;;;;;;;35.25;31.00;;;;;18.52;76.89;101555.28;146610;641;45028;-73
2021/11/05 06:58:47;;;;;;;;;33.00;28.25;;;;;18.54;76.68;101553.59;146611;655;46010;-73
2021/11/05 07:01:21;;;;;;;;;28.00;26.00;;;;;18.56;76.55;101558.03;146609;661;45016;-73
2021/11/05 07:03:55;;;;;;;;;31.25;26.50;;;;;18.59;76.60;101558.13;146610;612;45908;-73
2021/11/05 07:06:29;;;;;;;;;36.25;29.50;;;;;18.62;76.32;101560.84;146605;581;46016;-72
2021/11/05 07:09:03;;;;;;;;;35.75;31.00;;;;;18.62;76.17;101560.84;146610;670;46020;-76
2021/11/05 07:11:37;;;;;;;;;35.75;29.50;;;;;18.65;75.72;101562.69;146606;614;45017;-72
2021/11/05 07:14:11;;;;;;;;;30.25;26.75;;;;;18.67;75.80;101567.16;146609;563;46012;-71
2021/11/05 07:16:48;;;;;;;;;31.50;29.25;;;;;18.73;75.55;101563.00;146605;590;46012;-73
2021/11/05 07:19:29;;;;;;;;;35.50;32.00;;;;;18.76;76.02;101550.84;146609;662;45021;-70
2021/11/05 07:22:03;;;;;;;;;36.25;30.75;;;;;18.78;75.84;101554.38;146607;590;45020;-72
2021/11/05 07:24:39;;;;;;;;;36.00;31.00;;;;;18.82;75.80;101550.12;146609;569;46020;-71
2021/11/05 07:27:13;;;;;;;;;37.50;32.75;;;;;18.87;76.09;101549.41;146607;625;45021;-74
2021/11/05 07:29:52;;;;;;;;;39.00;31.75;;;;;18.93;75.79;101546.97;146608;629;46010;-74
2021/11/05 07:32:26;;;;;;;;;38.25;33.00;;;;;19.00;75.74;101552.41;146603;570;46016;-75
2021/11/05 07:35:00;;;;;;;;;70.33;61.67;;;;;19.05;75.43;101553.44;146608;569;46021;-76
2021/11/05 07:37:34;;;;;;;;;64.00;50.00;;;;;19.09;75.24;101552.69;146605;569;46016;-76
2021/11/05 07:40:09;;;;;;;;;75.00;67.00;;;;;19.14;74.81;101558.97;146606;570;46021;-77
2021/11/05 07:42:44;;;;;;;;;81.50;74.50;;;;;19.21;74.29;101563.56;146604;566;46016;-75
2021/11/05 07:45:20;;;;;;;;;71.75;57.75;;;;;19.28;74.71;101569.88;146611;571;45032;-77
2021/11/05 07:47:55;;;;;;;;;46.00;36.00;;;;;19.34;74.57;101567.44;146609;569;45034;-77
2021/11/05 07:50:34;;;;;;;;;49.00;40.25;;;;;19.39;74.78;101566.72;146610;591;45020;-77
2021/11/05 07:53:08;;;;;;;;;46.25;35.25;;;;;19.44;74.28;101563.31;146604;606;47917;-78
2021/11/05 07:55:45;;;;;;;;;50.00;40.50;;;;;19.43;74.50;101554.56;146606;628;46011;-77
2021/11/05 07:58:19;;;;;;;;;46.00;38.50;;;;;19.52;74.37;101564.44;146607;564;46012;-77
2021/11/05 08:00:53;;;;;;;;;49.50;39.00;;;;;19.54;74.37;101560.13;146607;579;46020;-77
2021/11/05 08:03:27;;;;;;;;;47.75;39.25;;;;;19.54;73.96;101561.00;146606;618;46918;-77
2021/11/05 08:06:01;;;;;;;;;49.00;39.00;;;;;19.57;73.77;101550.56;146610;646;45020;-77
2021/11/05 08:08:35;;;;;;;;;51.75;43.75;;;;;19.61;73.21;101551.56;146608;578;45016;-77
2021/11/05 08:11:10;;;;;;;;;28.50;25.00;;;;;19.67;73.32;101541.22;146608;613;45021;-72
2021/11/05 08:13:45;;;;;;;;;27.25;23.00;;;;;19.70;72.81;101535.16;146607;709;46012;-74
2021/11/05 08:16:19;;;;;;;;;29.25;24.50;;;;;19.70;72.77;101528.16;146610;602;46010;-74
2021/11/05 08:18:53;;;;;;;;;25.00;23.75;;;;;19.71;72.69;101524.66;146607;684;46020;-73
2021/11/05 08:21:27;;;;;;;;;32.25;28.00;;;;;19.77;72.81;101523.94;146607;624;46020;-74
2021/11/05 08:24:02;;;;;;;;;28.25;25.25;;;;;19.82;72.54;101536.38;146607;564;45020;-74
2021/11/05 08:26:36;;;;;;;;;29.00;23.50;;;;;19.91;72.54;101537.47;146608;599;46020;-74
2021/11/05 08:29:14;;;;;;;;;26.75;25.00;;;;;19.97;72.51;101541.16;146609;589;46012;-73
2021/11/05 08:31:48;;;;;;;;;29.25;25.00;;;;;19.99;72.65;101542.06;146609;662;46008;-74
2021/11/05 08:34:22;;;;;;;;;25.50;21.25;;;;;20.00;72.66;101543.88;146606;583;45918;-73
2021/11/05 08:36:56;;;;;;;;;26.50;23.75;;;;;20.00;72.14;101543.88;146610;605;45020;-73
2021/11/05 08:39:30;;;;;;;;;25.00;23.25;;;;;20.01;72.23;101535.09;146610;622;45021;-73
2021/11/05 08:42:04;;;;;;;;;31.00;24.25;;;;;19.83;72.07;101500.41;146609;613;45020;-73
2021/11/05 08:44:38;;;;;;;;;26.25;20.75;;;;;20.16;71.57;101539.00;146606;624;45020;-73
2021/11/05 08:47:12;;;;;;;;;31.75;27.00;;;;;20.21;72.06;101539.97;146608;564;46020;-73
2021/11/05 08:49:49;;;;;;;;;23.25;21.25;;;;;20.28;71.89;101547.19;146609;583;45021;-73
2021/11/05 08:52:25;;;;;;;;;25.75;24.25;;;;;20.27;70.97;101548.03;146611;583;45029;-73
2021/11/05 08:55:04;;;;;;;;;26.50;22.00;;;;;20.22;71.09;101537.41;146605;622;46017;-74
2021/11/05 08:57:40;;;;;;;;;19.25;17.00;;;;;20.20;71.30;101554.00;146610;597;45047;-74
2021/11/05 09:00:32;;;;;;;;;32.75;26.25;;;;;20.18;71.46;101558.34;146606;582;46917;-74
2021/11/05 09:03:08;;;;;;;;;24.50;21.50;;;;;20.14;71.40;101560.00;146609;570;46021;-73
2021/11/05 09:05:42;;;;;;;;;24.00;22.75;;;;;20.12;71.71;101559.06;146610;604;45033;-73
2021/11/05 09:08:19;;;;;;;;;26.50;23.50;;;;;20.12;71.79;101560.81;146608;600;46012;-69
2021/11/05 09:10:53;;;;;;;;;25.50;22.25;;;;;20.12;71.83;101564.31;146605;682;46918;-73
2021/11/05 09:13:27;;;;;;;;;28.75;27.00;;;;;20.09;71.99;101556.34;146610;601;45020;-73
2021/11/05 09:16:01;;;;;;;;;27.25;23.75;;;;;20.08;72.45;101557.22;146609;571;45030;-73
2021/11/05 09:18:36;;;;;;;;;25.25;23.50;;;;;20.07;71.89;101551.06;146609;564;45020;-73
2021/11/05 09:21:10;;;;;;;;;24.00;19.75;;;;;20.07;71.68;101550.19;146606;610;45020;-73
2021/11/05 09:23:44;;;;;;;;;27.25;25.75;;;;;20.06;72.30;101548.37;146609;627;46013;-73
2021/11/05 09:26:18;;;;;;;;;29.25;24.75;;;;;20.09;72.48;101556.34;146605;574;46016;-73
2021/11/05 09:28:52;;;;;;;;;32.25;28.00;;;;;20.13;72.06;101558.22;146611;655;45020;-73
2021/11/05 09:31:26;;;;;;;;;29.50;25.75;;;;;20.20;71.93;101548.75;146606;573;46917;-73
2021/11/05 09:34:00;;;;;;;;;29.00;25.50;;;;;20.31;72.53;101544.59;146610;580;46020;-73
2021/11/05 09:36:33;;;;;;;;;24.75;24.50;;;;;20.57;72.18;101539.13;146606;614;45020;-73
2021/11/05 09:39:08;;;;;;;;;17.00;15.00;;;;;20.93;71.62;101544.31;146608;564;46020;-73
2021/11/05 09:41:42;;;;;;;;;21.75;20.50;;;;;21.35;70.50;101532.91;146610;573;45032;-73
2021/11/05 09:44:16;;;;;;;;;25.50;24.50;;;;;21.73;69.07;101532.78;146611;607;45020;-73
2021/11/05 09:46:51;;;;;;;;;24.75;22.50;;;;;21.98;67.58;101527.06;146606;595;45020;-74
2021/11/05 09:49:25;;;;;;;;;26.25;24.75;;;;;22.12;66.83;101528.22;146608;615;46010;-73
2021/11/05 09:52:03;;;;;;;;;26.25;24.50;;;;;22.19;66.76;101529.22;146605;577;46016;-73
2021/11/05 09:54:39;;;;;;;;;22.25;21.25;;;;;22.32;67.81;101538.25;146608;668;45021;-73
2021/11/05 09:57:13;;;;;;;;;26.25;24.25;;;;;22.51;66.53;101535.00;146607;585;46012;-73
2021/11/05 09:59:47;;;;;;;;;26.75;25.50;;;;;22.74;65.78;101530.06;146608;612;45042;-74
2021/11/05 10:02:22;;;;;;;;;26.00;24.25;;;;;23.02;65.64;101528.72;146606;576;45017;-73
2021/11/05 10:04:58;;;;;;;;;29.25;25.00;;;;;23.23;64.87;101532.50;146609;584;45020;-73
2021/11/05 10:07:32;;;;;;;;;25.75;23.25;;;;;23.37;64.73;101522.97;146605;615;46016;-74
2021/11/05 10:10:08;;;;;;;;;25.50;21.75;;;;;23.45;64.43;101501.87;146609;584;46010;-73
2021/11/05 10:12:41;;;;;;;;;24.75;22.25;;;;;23.68;63.58;101518.00;146604;577;46016;-73
2021/11/05 10:15:15;;;;;;;;;28.00;24.75;;;;;23.82;62.87;101516.41;146610;599;45020;-73
2021/11/05 10:17:50;;;;;;;;;35.25;32.00;;;;;23.86;63.53;101510.28;146606;573;45021;-73
2021/11/05 10:20:24;;;;;;;;;26.75;23.50;;;;;23.87;63.24;101505.84;146611;570;46010;-73
2021/11/05 10:22:59;;;;;;;;;30.00;29.50;;;;;23.86;61.65;101494.37;146604;592;46016;-73
2021/11/05 10:25:40;;;;;;;;;29.75;23.25;;;;;23.71;62.39;101496.88;146611;569;45021;-73
2021/11/05 10:28:30;;;;;;;;;25.50;22.75;;;;;23.54;63.63;101498.44;146604;629;46016;-73
2021/11/05 10:31:09;;;;;;;;;23.00;21.25;;;;;23.34;63.89;101490.28;146606;613;46021;-73
2021/11/05 10:33:48;;;;;;;;;23.00;20.25;;;;;23.19;64.21;101493.66;146605;731;46016;-73
2021/11/05 10:36:27;;;;;;;;;26.25;21.25;;;;;23.01;63.88;101489.00;146610;572;46020;-73
2021/11/05 10:39:08;;;;;;;;;27.75;24.75;;;;;22.88;64.76;101487.94;146603;585;46017;-72
2021/11/05 10:41:42;;;;;;;;;23.75;23.00;;;;;22.84;65.87;101499.38;146608;571;46020;-73
2021/11/05 10:44:20;;;;;;;;;26.50;22.25;;;;;22.88;64.89;101498.53;146607;600;46020;-73
2021/11/05 10:47:09;;;;;;;;;24.00;23.50;;;;;22.94;65.54;101497.75;146610;565;45031;-74
2021/11/05 10:49:43;;;;;;;;;26.50;23.00;;;;;23.04;64.19;101483.75;146604;569;47020;-73
2021/11/05 10:52:23;;;;;;;;;26.75;20.50;;;;;23.14;64.27;101485.63;146610;652;46013;-74
2021/11/05 10:55:03;;;;;;;;;25.00;21.25;;;;;23.23;65.24;101479.56;146607;678;46016;-73
2021/11/05 10:57:49;;;;;;;;;24.25;20.75;;;;;23.43;64.13;101475.41;146608;595;45020;-74
2021/11/05 11:00:32;;;;;;;;;26.00;21.50;;;;;23.65;64.39;101473.84;146608;583;46012;-74
2021/11/05 11:03:43;;;;;;;;;21.50;19.25;;;;;23.91;63.94;101465.28;146612;732;45028;-73
2021/11/05 11:06:28;;;;;;;;;23.25;21.50;;;;;23.96;62.66;101456.50;146608;606;46012;-73
2021/11/05 11:09:13;;;;;;;;;22.25;21.50;;;;;24.02;61.68;101458.31;146607;657;46021;-73
2021/11/05 11:11:52;;;;;;;;;22.00;21.75;;;;;23.89;62.37;101425.50;146607;569;45020;-72
2021/11/05 11:14:35;;;;;;;;;23.50;21.00;;;;;24.09;62.06;101446.00;146611;592;45029;-73
2021/11/05 11:17:11;;;;;;;;;17.25;13.75;;;;;24.12;61.61;101443.37;146605;583;46016;-73
2021/11/05 11:19:50;;;;;;;;;20.00;16.50;;;;;24.11;61.91;101452.16;146610;622;45020;-74
2021/11/05 11:22:24;;;;;;;;;26.00;23.25;;;;;24.04;62.13;101445.94;146605;606;46017;-73
2021/11/05 11:24:58;;;;;;;;;22.00;18.75;;;;;23.98;62.26;101452.06;146610;627;45020;-73
2021/11/05 11:27:32;;;;;;;;;21.00;18.25;;;;;23.92;61.69;101449.38;146607;601;45020;-73
2021/11/05 11:30:06;;;;;;;;;21.50;20.50;;;;;23.87;62.23;101443.19;146609;679;45021;-73
2021/11/05 11:32:41;;;;;;;;;17.00;15.25;;;;;23.84;62.48;101440.50;146605;573;46016;-74
2021/11/05 11:35:15;;;;;;;;;27.50;19.25;;;;;23.85;62.58;101449.34;146609;566;46020;-73
2021/11/05 11:37:50;;;;;;;;;17.50;14.25;;;;;23.89;62.98;101440.53;146609;651;46012;-73
2021/11/05 11:40:24;;;;;;;;;24.25;20.50;;;;;23.89;62.43;101422.88;146609;586;45020;-73
2021/11/05 11:42:59;;;;;;;;;28.50;22.50;;;;;23.90;62.33;101418.47;146607;651;45016;-72
2021/11/05 11:45:33;;;;;;;;;20.00;18.00;;;;;23.86;61.25;101417.56;146607;626;45908;-69